• pl
  • eng

Awiacja
METAR messages from military airports. 01:00 01.01.1970

METAR EPCE 190200Z 29006KT 2800 BR OVC002 19/19
Q1010 RMK 187 099 8/8 =

METAR EPDA 190200Z 29004KT 250V320 8000 -RA OVC101 19/19
Q1011 RMK 189 098 8/8 =

METAR EPDE 190200Z 29008KT 8000 BKN006 BKN011 21/20 Q1007 RMK 205 096
7/5=

METAR EPIR 190200Z 29010KT 9999 SCT011 BKN100 19/17 Q1010 RMK 188 091
7/4 =

METAR EPKS 190200Z 31010KT 9999 BKN010 18/17 Q1012 RMK 184 092 7/7=

METAR EPLK 190200Z AUTO 30008KT 8000 ///005 18/18 Q1010 RMK 181 097 =

METAR EPLY 190200Z 30006KT 5000 RA BKN006 OVC015 16/16 Q1010 RMK 164
097 8/5=

METAR EPMB 190200Z NIL=

METAR EPMI 190200Z 32008KT 6000 SCT003 BKN005 OVC010 18/17 Q1012 RMK
178 095 8/3=

METAR EPMM 190200Z 29006KT 4000 BR OVC002 19/19 Q1007 RMK 193 099
8/8=

METAR EPNA 190200Z NIL=

METAR EPOK 190200Z 29012KT 9999 SCT063 19/18
Q1009 RMK 188 096 3/3 =

METAR EPPR 190200Z NIL=

METAR EPPW 190200Z 30010KT 9999 OVC007 19/17 Q1011
RMK 185 092 8/8 =

METAR EPSN 190200Z AUTO 31004KT 3500 BKN043 18/18 Q1012 RMK 178 100
8/5=

METAR EPTM 190200Z 32008KT 3000 -RA BR BKN003 OVC010 19/18 Q1009 RMK
189 094 8/6=
Awiacja.imgw.pl jest pogodowym serwisem informacyjnym
Instytutu Meteorologii i Gospodarki Wodnej Państwowego Instytutu Badawczego.
Copyright IMGW PIB 2009-2011© Wszelkie prawa zastrzeżone.